sensor_id;sensor_type;location;lat;lon;timestamp;P1;durP1;ratioP1;P2;durP2;ratioP2
24567;SDS011;12731;52.182;8.716;2023-12-29T00:01:30;7.40;;;1.52;;
24567;SDS011;12731;52.182;8.716;2023-12-29T00:03:57;7.07;;;1.67;;
24567;SDS011;12731;52.182;8.716;2023-12-29T00:06:23;5.95;;;1.52;;
24567;SDS011;12731;52.182;8.716;2023-12-29T00:08:50;5.00;;;1.67;;
24567;SDS011;12731;52.182;8.716;2023-12-29T00:11:17;5.47;;;1.48;;
24567;SDS011;12731;52.182;8.716;2023-12-29T00:13:44;5.15;;;1.50;;
24567;SDS011;12731;52.182;8.716;2023-12-29T00:16:11;4.13;;;1.45;;
24567;SDS011;12731;52.182;8.716;2023-12-29T00:18:37;5.63;;;1.83;;
24567;SDS011;12731;52.182;8.716;2023-12-29T00:21:05;7.28;;;1.55;;
24567;SDS011;12731;52.182;8.716;2023-12-29T00:23:33;5.78;;;1.73;;
24567;SDS011;12731;52.182;8.716;2023-12-29T00:25:59;5.97;;;1.88;;
24567;SDS011;12731;52.182;8.716;2023-12-29T00:28:26;5.72;;;1.48;;
24567;SDS011;12731;52.182;8.716;2023-12-29T00:30:52;5.07;;;1.50;;
24567;SDS011;12731;52.182;8.716;2023-12-29T00:33:28;7.38;;;1.80;;
24567;SDS011;12731;52.182;8.716;2023-12-29T00:35:55;9.75;;;1.80;;
24567;SDS011;12731;52.182;8.716;2023-12-29T00:38:21;6.68;;;1.60;;
24567;SDS011;12731;52.182;8.716;2023-12-29T00:40:47;8.05;;;1.90;;
24567;SDS011;12731;52.182;8.716;2023-12-29T00:43:14;7.07;;;1.80;;
24567;SDS011;12731;52.182;8.716;2023-12-29T00:45:41;5.45;;;1.85;;
24567;SDS011;12731;52.182;8.716;2023-12-29T00:48:07;6.45;;;1.73;;
24567;SDS011;12731;52.182;8.716;2023-12-29T00:50:34;9.70;;;1.75;;
24567;SDS011;12731;52.182;8.716;2023-12-29T00:53:00;4.78;;;1.50;;
24567;SDS011;12731;52.182;8.716;2023-12-29T00:55:27;5.13;;;1.58;;
24567;SDS011;12731;52.182;8.716;2023-12-29T00:57:53;5.78;;;1.65;;
24567;SDS011;12731;52.182;8.716;2023-12-29T01:00:20;7.30;;;1.58;;
24567;SDS011;12731;52.182;8.716;2023-12-29T01:02:47;6.85;;;1.67;;
24567;SDS011;12731;52.182;8.716;2023-12-29T01:05:16;7.00;;;1.67;;
24567;SDS011;12731;52.182;8.716;2023-12-29T01:07:43;5.70;;;1.63;;
24567;SDS011;12731;52.182;8.716;2023-12-29T01:10:10;7.32;;;1.77;;
24567;SDS011;12731;52.182;8.716;2023-12-29T01:12:37;9.07;;;1.95;;
24567;SDS011;12731;52.182;8.716;2023-12-29T01:15:03;9.90;;;2.20;;
24567;SDS011;12731;52.182;8.716;2023-12-29T01:17:30;6.70;;;1.88;;
24567;SDS011;12731;52.182;8.716;2023-12-29T01:19:57;6.43;;;1.63;;
24567;SDS011;12731;52.182;8.716;2023-12-29T01:22:23;7.25;;;1.63;;
24567;SDS011;12731;52.182;8.716;2023-12-29T01:24:50;9.65;;;2.25;;
24567;SDS011;12731;52.182;8.716;2023-12-29T01:27:16;7.03;;;2.15;;
24567;SDS011;12731;52.182;8.716;2023-12-29T01:29:43;9.10;;;1.92;;
24567;SDS011;12731;52.182;8.716;2023-12-29T01:32:09;5.78;;;1.55;;
24567;SDS011;12731;52.182;8.716;2023-12-29T01:34:36;8.18;;;1.52;;
24567;SDS011;12731;52.182;8.716;2023-12-29T01:37:03;6.05;;;1.55;;
24567;SDS011;12731;52.182;8.716;2023-12-29T01:39:30;6.72;;;1.35;;
24567;SDS011;12731;52.182;8.716;2023-12-29T01:41:57;6.03;;;1.90;;
24567;SDS011;12731;52.182;8.716;2023-12-29T01:44:23;5.63;;;1.50;;
24567;SDS011;12731;52.182;8.716;2023-12-29T01:46:50;7.03;;;1.63;;
24567;SDS011;12731;52.182;8.716;2023-12-29T01:49:18;6.13;;;1.52;;
24567;SDS011;12731;52.182;8.716;2023-12-29T01:51:49;5.68;;;1.42;;
24567;SDS011;12731;52.182;8.716;2023-12-29T01:54:18;9.45;;;1.88;;
24567;SDS011;12731;52.182;8.716;2023-12-29T01:56:46;4.97;;;1.60;;
24567;SDS011;12731;52.182;8.716;2023-12-29T01:59:12;5.63;;;1.70;;
24567;SDS011;12731;52.182;8.716;2023-12-29T02:01:50;4.90;;;1.85;;
24567;SDS011;12731;52.182;8.716;2023-12-29T02:04:17;7.20;;;1.73;;
24567;SDS011;12731;52.182;8.716;2023-12-29T02:06:44;5.05;;;1.42;;
24567;SDS011;12731;52.182;8.716;2023-12-29T02:09:11;6.53;;;1.85;;
24567;SDS011;12731;52.182;8.716;2023-12-29T02:11:38;4.18;;;1.30;;
24567;SDS011;12731;52.182;8.716;2023-12-29T02:14:05;7.05;;;1.65;;
24567;SDS011;12731;52.182;8.716;2023-12-29T02:16:45;7.88;;;1.73;;
24567;SDS011;12731;52.182;8.716;2023-12-29T02:19:24;5.25;;;1.60;;
24567;SDS011;12731;52.182;8.716;2023-12-29T02:22:04;4.43;;;1.42;;
24567;SDS011;12731;52.182;8.716;2023-12-29T02:24:31;6.68;;;1.48;;
24567;SDS011;12731;52.182;8.716;2023-12-29T02:29:56;5.22;;;1.58;;
24567;SDS011;12731;52.182;8.716;2023-12-29T02:32:30;5.93;;;1.45;;
24567;SDS011;12731;52.182;8.716;2023-12-29T02:34:58;3.78;;;1.20;;
24567;SDS011;12731;52.182;8.716;2023-12-29T02:37:26;7.68;;;1.88;;
24567;SDS011;12731;52.182;8.716;2023-12-29T02:39:54;4.50;;;1.30;;
24567;SDS011;12731;52.182;8.716;2023-12-29T02:42:22;4.93;;;1.60;;
24567;SDS011;12731;52.182;8.716;2023-12-29T02:44:48;4.18;;;1.52;;
24567;SDS011;12731;52.182;8.716;2023-12-29T02:47:14;7.60;;;1.60;;
24567;SDS011;12731;52.182;8.716;2023-12-29T02:49:43;3.53;;;1.33;;
24567;SDS011;12731;52.182;8.716;2023-12-29T02:52:09;5.28;;;1.17;;
24567;SDS011;12731;52.182;8.716;2023-12-29T02:54:36;6.55;;;1.30;;
24567;SDS011;12731;52.182;8.716;2023-12-29T02:57:02;4.90;;;1.13;;
24567;SDS011;12731;52.182;8.716;2023-12-29T02:59:29;7.78;;;1.50;;
24567;SDS011;12731;52.182;8.716;2023-12-29T03:01:55;2.92;;;1.10;;
24567;SDS011;12731;52.182;8.716;2023-12-29T03:04:22;4.25;;;1.40;;
24567;SDS011;12731;52.182;8.716;2023-12-29T03:06:48;2.22;;;0.95;;
24567;SDS011;12731;52.182;8.716;2023-12-29T03:09:15;2.70;;;0.82;;
24567;SDS011;12731;52.182;8.716;2023-12-29T03:11:41;3.90;;;1.23;;
24567;SDS011;12731;52.182;8.716;2023-12-29T03:14:08;4.90;;;1.00;;
24567;SDS011;12731;52.182;8.716;2023-12-29T03:16:34;5.10;;;1.27;;
24567;SDS011;12731;52.182;8.716;2023-12-29T03:19:01;6.47;;;1.48;;
24567;SDS011;12731;52.182;8.716;2023-12-29T03:21:27;5.32;;;1.67;;
24567;SDS011;12731;52.182;8.716;2023-12-29T03:23:54;6.15;;;1.45;;
24567;SDS011;12731;52.182;8.716;2023-12-29T03:26:20;3.55;;;1.30;;
24567;SDS011;12731;52.182;8.716;2023-12-29T03:28:46;4.32;;;1.30;;
24567;SDS011;12731;52.182;8.716;2023-12-29T03:31:13;6.43;;;1.40;;
24567;SDS011;12731;52.182;8.716;2023-12-29T03:33:39;6.43;;;1.50;;
24567;SDS011;12731;52.182;8.716;2023-12-29T03:36:06;4.85;;;1.25;;
24567;SDS011;12731;52.182;8.716;2023-12-29T03:38:33;5.82;;;1.35;;
24567;SDS011;12731;52.182;8.716;2023-12-29T03:41:00;3.92;;;1.25;;
24567;SDS011;12731;52.182;8.716;2023-12-29T03:43:26;5.43;;;1.52;;
24567;SDS011;12731;52.182;8.716;2023-12-29T03:45:53;3.08;;;1.40;;
24567;SDS011;12731;52.182;8.716;2023-12-29T03:48:19;6.20;;;1.42;;
24567;SDS011;12731;52.182;8.716;2023-12-29T03:50:46;5.88;;;1.73;;
24567;SDS011;12731;52.182;8.716;2023-12-29T03:53:12;5.18;;;1.40;;
24567;SDS011;12731;52.182;8.716;2023-12-29T03:55:41;3.05;;;1.08;;
24567;SDS011;12731;52.182;8.716;2023-12-29T03:58:08;6.75;;;1.50;;
24567;SDS011;12731;52.182;8.716;2023-12-29T04:00:35;4.95;;;1.45;;
24567;SDS011;12731;52.182;8.716;2023-12-29T04:03:02;4.90;;;1.10;;
24567;SDS011;12731;52.182;8.716;2023-12-29T04:05:28;6.40;;;1.20;;
24567;SDS011;12731;52.182;8.716;2023-12-29T04:07:55;4.05;;;1.42;;
24567;SDS011;12731;52.182;8.716;2023-12-29T04:10:21;2.78;;;1.13;;
24567;SDS011;12731;52.182;8.716;2023-12-29T04:12:47;4.85;;;1.23;;
24567;SDS011;12731;52.182;8.716;2023-12-29T04:15:14;3.65;;;1.17;;
24567;SDS011;12731;52.182;8.716;2023-12-29T04:17:41;3.55;;;1.27;;
24567;SDS011;12731;52.182;8.716;2023-12-29T04:20:07;5.22;;;1.13;;
24567;SDS011;12731;52.182;8.716;2023-12-29T04:22:34;3.78;;;1.48;;
24567;SDS011;12731;52.182;8.716;2023-12-29T04:25:00;3.60;;;1.23;;
24567;SDS011;12731;52.182;8.716;2023-12-29T04:27:27;5.07;;;1.50;;
24567;SDS011;12731;52.182;8.716;2023-12-29T04:29:53;5.63;;;1.70;;
24567;SDS011;12731;52.182;8.716;2023-12-29T04:32:20;5.47;;;1.70;;
24567;SDS011;12731;52.182;8.716;2023-12-29T04:34:46;7.30;;;1.80;;
24567;SDS011;12731;52.182;8.716;2023-12-29T04:37:13;6.40;;;1.60;;
24567;SDS011;12731;52.182;8.716;2023-12-29T04:39:39;5.45;;;1.92;;
24567;SDS011;12731;52.182;8.716;2023-12-29T04:42:06;6.53;;;1.73;;
24567;SDS011;12731;52.182;8.716;2023-12-29T04:44:33;5.28;;;1.70;;
24567;SDS011;12731;52.182;8.716;2023-12-29T04:46:59;7.40;;;1.90;;
24567;SDS011;12731;52.182;8.716;2023-12-29T04:49:26;7.45;;;2.03;;
24567;SDS011;12731;52.182;8.716;2023-12-29T04:51:52;8.38;;;2.03;;
24567;SDS011;12731;52.182;8.716;2023-12-29T04:54:19;8.68;;;2.22;;
24567;SDS011;12731;52.182;8.716;2023-12-29T04:56:45;5.55;;;1.92;;
24567;SDS011;12731;52.182;8.716;2023-12-29T04:59:12;8.05;;;2.00;;
24567;SDS011;12731;52.182;8.716;2023-12-29T05:01:38;6.57;;;2.33;;
24567;SDS011;12731;52.182;8.716;2023-12-29T05:04:05;5.60;;;2.15;;
24567;SDS011;12731;52.182;8.716;2023-12-29T05:06:31;10.82;;;2.50;;
24567;SDS011;12731;52.182;8.716;2023-12-29T05:08:58;9.43;;;2.63;;
24567;SDS011;12731;52.182;8.716;2023-12-29T05:11:24;7.53;;;2.67;;
24567;SDS011;12731;52.182;8.716;2023-12-29T05:13:51;10.52;;;2.60;;
24567;SDS011;12731;52.182;8.716;2023-12-29T05:16:17;7.28;;;2.67;;
24567;SDS011;12731;52.182;8.716;2023-12-29T05:18:43;9.35;;;2.50;;
24567;SDS011;12731;52.182;8.716;2023-12-29T05:21:14;7.80;;;3.05;;
24567;SDS011;12731;52.182;8.716;2023-12-29T05:23:41;8.73;;;2.55;;
24567;SDS011;12731;52.182;8.716;2023-12-29T05:26:08;12.40;;;2.60;;
24567;SDS011;12731;52.182;8.716;2023-12-29T05:28:34;7.45;;;2.92;;
24567;SDS011;12731;52.182;8.716;2023-12-29T05:31:01;9.70;;;2.78;;
24567;SDS011;12731;52.182;8.716;2023-12-29T05:33:30;10.15;;;2.42;;
24567;SDS011;12731;52.182;8.716;2023-12-29T05:35:57;9.15;;;2.42;;
24567;SDS011;12731;52.182;8.716;2023-12-29T05:38:24;12.95;;;2.75;;
24567;SDS011;12731;52.182;8.716;2023-12-29T05:40:50;8.35;;;2.50;;
24567;SDS011;12731;52.182;8.716;2023-12-29T05:43:17;10.70;;;3.10;;
24567;SDS011;12731;52.182;8.716;2023-12-29T05:45:44;6.45;;;2.15;;
24567;SDS011;12731;52.182;8.716;2023-12-29T05:48:10;12.90;;;2.45;;
24567;SDS011;12731;52.182;8.716;2023-12-29T05:50:38;8.80;;;2.33;;
24567;SDS011;12731;52.182;8.716;2023-12-29T05:53:05;10.43;;;2.42;;
24567;SDS011;12731;52.182;8.716;2023-12-29T05:55:32;7.30;;;2.42;;
24567;SDS011;12731;52.182;8.716;2023-12-29T05:57:58;12.88;;;2.42;;
24567;SDS011;12731;52.182;8.716;2023-12-29T06:00:25;5.25;;;1.80;;
24567;SDS011;12731;52.182;8.716;2023-12-29T06:02:51;6.78;;;1.70;;
24567;SDS011;12731;52.182;8.716;2023-12-29T06:05:18;7.70;;;1.95;;
24567;SDS011;12731;52.182;8.716;2023-12-29T06:07:44;13.02;;;2.72;;
24567;SDS011;12731;52.182;8.716;2023-12-29T06:10:11;7.40;;;1.90;;
24567;SDS011;12731;52.182;8.716;2023-12-29T06:12:38;13.48;;;2.53;;
24567;SDS011;12731;52.182;8.716;2023-12-29T06:15:04;11.40;;;2.22;;
24567;SDS011;12731;52.182;8.716;2023-12-29T06:17:31;6.18;;;1.70;;
24567;SDS011;12731;52.182;8.716;2023-12-29T06:19:58;10.10;;;2.40;;
24567;SDS011;12731;52.182;8.716;2023-12-29T06:22:26;9.18;;;2.33;;
24567;SDS011;12731;52.182;8.716;2023-12-29T06:24:53;8.00;;;2.30;;
24567;SDS011;12731;52.182;8.716;2023-12-29T06:27:19;9.80;;;2.08;;
24567;SDS011;12731;52.182;8.716;2023-12-29T06:29:46;10.13;;;2.22;;
24567;SDS011;12731;52.182;8.716;2023-12-29T06:32:12;6.07;;;1.73;;
24567;SDS011;12731;52.182;8.716;2023-12-29T06:34:40;5.35;;;2.40;;
24567;SDS011;12731;52.182;8.716;2023-12-29T06:37:06;8.07;;;1.85;;
24567;SDS011;12731;52.182;8.716;2023-12-29T06:39:33;8.38;;;1.90;;
24567;SDS011;12731;52.182;8.716;2023-12-29T06:41:59;8.27;;;1.95;;
24567;SDS011;12731;52.182;8.716;2023-12-29T06:44:26;7.70;;;2.00;;
24567;SDS011;12731;52.182;8.716;2023-12-29T06:46:52;9.65;;;2.10;;
24567;SDS011;12731;52.182;8.716;2023-12-29T06:49:18;9.70;;;1.90;;
24567;SDS011;12731;52.182;8.716;2023-12-29T06:51:45;7.60;;;1.90;;
24567;SDS011;12731;52.182;8.716;2023-12-29T06:54:11;6.43;;;1.90;;
24567;SDS011;12731;52.182;8.716;2023-12-29T06:56:38;9.68;;;2.78;;
24567;SDS011;12731;52.182;8.716;2023-12-29T06:59:04;10.32;;;2.22;;
24567;SDS011;12731;52.182;8.716;2023-12-29T07:01:31;11.25;;;2.58;;
24567;SDS011;12731;52.182;8.716;2023-12-29T07:03:57;10.88;;;2.60;;
24567;SDS011;12731;52.182;8.716;2023-12-29T07:06:24;9.45;;;2.20;;
24567;SDS011;12731;52.182;8.716;2023-12-29T07:08:50;9.10;;;2.30;;
24567;SDS011;12731;52.182;8.716;2023-12-29T07:11:17;7.70;;;2.00;;
24567;SDS011;12731;52.182;8.716;2023-12-29T07:13:43;9.48;;;2.30;;
24567;SDS011;12731;52.182;8.716;2023-12-29T07:16:10;8.02;;;2.38;;
24567;SDS011;12731;52.182;8.716;2023-12-29T07:18:36;9.02;;;2.20;;
24567;SDS011;12731;52.182;8.716;2023-12-29T07:21:03;9.52;;;2.20;;
24567;SDS011;12731;52.182;8.716;2023-12-29T07:23:30;9.85;;;2.17;;
24567;SDS011;12731;52.182;8.716;2023-12-29T07:25:56;9.07;;;2.45;;
24567;SDS011;12731;52.182;8.716;2023-12-29T07:28:22;8.65;;;2.60;;
24567;SDS011;12731;52.182;8.716;2023-12-29T07:30:49;11.23;;;2.40;;
24567;SDS011;12731;52.182;8.716;2023-12-29T07:33:15;7.47;;;2.00;;
24567;SDS011;12731;52.182;8.716;2023-12-29T07:35:42;6.90;;;2.50;;
24567;SDS011;12731;52.182;8.716;2023-12-29T07:38:09;6.70;;;2.20;;
24567;SDS011;12731;52.182;8.716;2023-12-29T07:40:35;10.68;;;2.25;;
24567;SDS011;12731;52.182;8.716;2023-12-29T07:43:01;6.75;;;2.10;;
24567;SDS011;12731;52.182;8.716;2023-12-29T07:45:28;9.45;;;2.28;;
24567;SDS011;12731;52.182;8.716;2023-12-29T07:47:55;9.43;;;2.00;;
24567;SDS011;12731;52.182;8.716;2023-12-29T07:50:22;7.28;;;2.00;;
24567;SDS011;12731;52.182;8.716;2023-12-29T07:52:48;7.85;;;2.13;;
24567;SDS011;12731;52.182;8.716;2023-12-29T07:55:14;10.25;;;2.35;;
24567;SDS011;12731;52.182;8.716;2023-12-29T07:57:44;9.23;;;2.25;;
24567;SDS011;12731;52.182;8.716;2023-12-29T08:00:16;7.55;;;2.22;;
24567;SDS011;12731;52.182;8.716;2023-12-29T08:02:42;8.13;;;2.10;;
24567;SDS011;12731;52.182;8.716;2023-12-29T08:05:09;10.35;;;2.50;;
24567;SDS011;12731;52.182;8.716;2023-12-29T08:07:38;8.80;;;2.15;;
24567;SDS011;12731;52.182;8.716;2023-12-29T08:10:05;11.57;;;2.38;;
24567;SDS011;12731;52.182;8.716;2023-12-29T08:12:33;9.23;;;1.90;;
24567;SDS011;12731;52.182;8.716;2023-12-29T08:15:00;9.40;;;2.25;;
24567;SDS011;12731;52.182;8.716;2023-12-29T08:17:26;8.07;;;2.00;;
24567;SDS011;12731;52.182;8.716;2023-12-29T08:19:53;9.75;;;1.70;;
24567;SDS011;12731;52.182;8.716;2023-12-29T08:22:20;7.70;;;2.25;;
24567;SDS011;12731;52.182;8.716;2023-12-29T08:24:46;6.95;;;1.70;;
24567;SDS011;12731;52.182;8.716;2023-12-29T08:27:13;6.60;;;1.85;;
24567;SDS011;12731;52.182;8.716;2023-12-29T08:29:40;10.88;;;2.10;;
24567;SDS011;12731;52.182;8.716;2023-12-29T08:32:07;9.07;;;2.00;;
24567;SDS011;12731;52.182;8.716;2023-12-29T08:34:33;9.48;;;1.90;;
24567;SDS011;12731;52.182;8.716;2023-12-29T08:37:04;11.20;;;2.15;;
24567;SDS011;12731;52.182;8.716;2023-12-29T08:39:31;7.85;;;1.67;;
24567;SDS011;12731;52.182;8.716;2023-12-29T08:41:57;14.65;;;2.10;;
24567;SDS011;12731;52.182;8.716;2023-12-29T08:44:23;10.55;;;2.03;;
24567;SDS011;12731;52.182;8.716;2023-12-29T08:46:50;11.05;;;1.98;;
24567;SDS011;12731;52.182;8.716;2023-12-29T08:49:17;11.32;;;1.83;;
24567;SDS011;12731;52.182;8.716;2023-12-29T08:51:43;9.15;;;2.30;;
24567;SDS011;12731;52.182;8.716;2023-12-29T08:54:10;10.35;;;2.10;;
24567;SDS011;12731;52.182;8.716;2023-12-29T08:56:36;12.50;;;2.42;;
24567;SDS011;12731;52.182;8.716;2023-12-29T08:59:02;7.80;;;2.00;;
24567;SDS011;12731;52.182;8.716;2023-12-29T09:01:29;11.43;;;2.00;;
24567;SDS011;12731;52.182;8.716;2023-12-29T09:03:55;8.80;;;2.05;;
24567;SDS011;12731;52.182;8.716;2023-12-29T09:06:22;6.88;;;1.67;;
24567;SDS011;12731;52.182;8.716;2023-12-29T09:08:48;11.40;;;2.00;;
24567;SDS011;12731;52.182;8.716;2023-12-29T09:11:15;10.63;;;1.77;;
24567;SDS011;12731;52.182;8.716;2023-12-29T09:13:42;9.45;;;1.58;;
24567;SDS011;12731;52.182;8.716;2023-12-29T09:16:09;8.13;;;1.70;;
24567;SDS011;12731;52.182;8.716;2023-12-29T09:18:36;6.60;;;1.50;;
24567;SDS011;12731;52.182;8.716;2023-12-29T09:21:03;7.95;;;1.90;;
24567;SDS011;12731;52.182;8.716;2023-12-29T09:23:29;7.63;;;1.80;;
24567;SDS011;12731;52.182;8.716;2023-12-29T09:25:56;4.85;;;1.52;;
24567;SDS011;12731;52.182;8.716;2023-12-29T09:28:23;6.90;;;1.58;;
24567;SDS011;12731;52.182;8.716;2023-12-29T09:30:49;5.55;;;1.52;;
24567;SDS011;12731;52.182;8.716;2023-12-29T09:33:16;7.68;;;2.13;;
24567;SDS011;12731;52.182;8.716;2023-12-29T09:35:42;6.15;;;1.88;;
24567;SDS011;12731;52.182;8.716;2023-12-29T09:38:09;8.88;;;1.90;;
24567;SDS011;12731;52.182;8.716;2023-12-29T09:40:36;5.97;;;1.73;;
24567;SDS011;12731;52.182;8.716;2023-12-29T09:43:03;5.70;;;1.92;;
24567;SDS011;12731;52.182;8.716;2023-12-29T09:45:31;5.72;;;1.75;;
24567;SDS011;12731;52.182;8.716;2023-12-29T09:47:58;6.95;;;1.77;;
24567;SDS011;12731;52.182;8.716;2023-12-29T09:50:29;3.13;;;1.58;;
24567;SDS011;12731;52.182;8.716;2023-12-29T09:52:56;5.57;;;1.80;;
24567;SDS011;12731;52.182;8.716;2023-12-29T09:55:23;5.05;;;1.40;;
24567;SDS011;12731;52.182;8.716;2023-12-29T09:57:50;5.93;;;1.67;;
24567;SDS011;12731;52.182;8.716;2023-12-29T10:00:17;4.47;;;1.70;;
24567;SDS011;12731;52.182;8.716;2023-12-29T10:02:44;5.35;;;1.50;;
24567;SDS011;12731;52.182;8.716;2023-12-29T10:05:11;5.75;;;1.67;;
24567;SDS011;12731;52.182;8.716;2023-12-29T10:07:38;6.53;;;1.80;;
24567;SDS011;12731;52.182;8.716;2023-12-29T10:10:05;5.28;;;2.33;;
24567;SDS011;12731;52.182;8.716;2023-12-29T10:12:33;6.55;;;1.80;;
24567;SDS011;12731;52.182;8.716;2023-12-29T10:15:09;7.38;;;1.88;;
24567;SDS011;12731;52.182;8.716;2023-12-29T10:17:51;7.13;;;1.65;;
24567;SDS011;12731;52.182;8.716;2023-12-29T10:23:19;5.75;;;1.98;;
24567;SDS011;12731;52.182;8.716;2023-12-29T10:25:47;5.80;;;1.80;;
24567;SDS011;12731;52.182;8.716;2023-12-29T10:28:14;4.15;;;1.55;;
24567;SDS011;12731;52.182;8.716;2023-12-29T10:30:43;9.10;;;2.10;;
24567;SDS011;12731;52.182;8.716;2023-12-29T10:33:10;5.32;;;1.80;;
24567;SDS011;12731;52.182;8.716;2023-12-29T10:35:36;5.70;;;1.85;;
24567;SDS011;12731;52.182;8.716;2023-12-29T10:38:09;4.40;;;1.63;;
24567;SDS011;12731;52.182;8.716;2023-12-29T10:40:39;4.93;;;1.63;;
24567;SDS011;12731;52.182;8.716;2023-12-29T10:43:06;5.63;;;1.77;;
24567;SDS011;12731;52.182;8.716;2023-12-29T10:45:36;2.92;;;1.40;;
24567;SDS011;12731;52.182;8.716;2023-12-29T10:48:02;5.13;;;1.50;;
24567;SDS011;12731;52.182;8.716;2023-12-29T10:50:29;6.03;;;1.80;;
24567;SDS011;12731;52.182;8.716;2023-12-29T10:53:11;3.50;;;1.33;;
24567;SDS011;12731;52.182;8.716;2023-12-29T10:55:41;3.25;;;1.38;;
24567;SDS011;12731;52.182;8.716;2023-12-29T10:58:07;6.85;;;1.52;;
24567;SDS011;12731;52.182;8.716;2023-12-29T11:00:34;4.60;;;1.40;;
24567;SDS011;12731;52.182;8.716;2023-12-29T11:03:01;5.70;;;1.23;;
24567;SDS011;12731;52.182;8.716;2023-12-29T11:05:28;3.42;;;1.50;;
24567;SDS011;12731;52.182;8.716;2023-12-29T11:07:54;4.88;;;1.55;;
24567;SDS011;12731;52.182;8.716;2023-12-29T11:10:21;4.30;;;1.60;;
24567;SDS011;12731;52.182;8.716;2023-12-29T11:12:48;2.08;;;1.00;;
24567;SDS011;12731;52.182;8.716;2023-12-29T11:15:15;4.60;;;1.45;;
24567;SDS011;12731;52.182;8.716;2023-12-29T11:17:42;3.17;;;1.42;;
24567;SDS011;12731;52.182;8.716;2023-12-29T11:20:16;1.48;;;0.85;;
24567;SDS011;12731;52.182;8.716;2023-12-29T11:22:43;5.30;;;1.33;;
24567;SDS011;12731;52.182;8.716;2023-12-29T11:25:11;2.58;;;1.30;;
24567;SDS011;12731;52.182;8.716;2023-12-29T11:27:38;3.10;;;1.10;;
24567;SDS011;12731;52.182;8.716;2023-12-29T11:30:05;1.15;;;0.80;;
24567;SDS011;12731;52.182;8.716;2023-12-29T11:32:40;1.98;;;0.98;;
24567;SDS011;12731;52.182;8.716;2023-12-29T11:35:18;1.73;;;1.10;;
24567;SDS011;12731;52.182;8.716;2023-12-29T11:43:22;2.75;;;1.00;;
24567;SDS011;12731;52.182;8.716;2023-12-29T11:45:49;3.47;;;1.20;;
24567;SDS011;12731;52.182;8.716;2023-12-29T11:48:52;1.45;;;0.80;;
24567;SDS011;12731;52.182;8.716;2023-12-29T11:53:54;1.98;;;0.90;;
24567;SDS011;12731;52.182;8.716;2023-12-29T11:56:21;2.10;;;0.95;;
24567;SDS011;12731;52.182;8.716;2023-12-29T11:58:47;1.65;;;1.02;;
24567;SDS011;12731;52.182;8.716;2023-12-29T12:01:14;2.95;;;1.20;;
24567;SDS011;12731;52.182;8.716;2023-12-29T12:03:59;1.90;;;1.20;;
24567;SDS011;12731;52.182;8.716;2023-12-29T12:06:39;1.02;;;0.93;;
24567;SDS011;12731;52.182;8.716;2023-12-29T12:09:15;2.78;;;1.02;;
24567;SDS011;12731;52.182;8.716;2023-12-29T12:11:43;3.08;;;1.00;;
24567;SDS011;12731;52.182;8.716;2023-12-29T12:14:10;1.52;;;1.05;;
24567;SDS011;12731;52.182;8.716;2023-12-29T12:19:11;2.28;;;0.98;;
24567;SDS011;12731;52.182;8.716;2023-12-29T12:21:38;2.47;;;1.00;;
24567;SDS011;12731;52.182;8.716;2023-12-29T12:24:05;2.80;;;1.10;;
24567;SDS011;12731;52.182;8.716;2023-12-29T12:26:32;1.30;;;0.80;;
24567;SDS011;12731;52.182;8.716;2023-12-29T12:28:59;1.63;;;0.90;;
24567;SDS011;12731;52.182;8.716;2023-12-29T12:31:25;1.70;;;0.80;;
24567;SDS011;12731;52.182;8.716;2023-12-29T12:33:56;2.05;;;0.80;;
24567;SDS011;12731;52.182;8.716;2023-12-29T12:36:23;2.90;;;1.00;;
24567;SDS011;12731;52.182;8.716;2023-12-29T12:38:50;1.08;;;0.98;;
24567;SDS011;12731;52.182;8.716;2023-12-29T12:41:20;1.10;;;0.82;;
24567;SDS011;12731;52.182;8.716;2023-12-29T12:46:48;2.50;;;1.00;;
24567;SDS011;12731;52.182;8.716;2023-12-29T12:49:18;2.50;;;0.90;;
24567;SDS011;12731;52.182;8.716;2023-12-29T12:51:46;2.05;;;1.27;;
24567;SDS011;12731;52.182;8.716;2023-12-29T12:54:13;3.50;;;1.00;;
24567;SDS011;12731;52.182;8.716;2023-12-29T12:56:43;3.90;;;1.30;;
24567;SDS011;12731;52.182;8.716;2023-12-29T12:59:09;2.38;;;1.08;;
24567;SDS011;12731;52.182;8.716;2023-12-29T13:01:36;1.85;;;0.80;;
24567;SDS011;12731;52.182;8.716;2023-12-29T13:04:07;2.90;;;1.20;;
24567;SDS011;12731;52.182;8.716;2023-12-29T13:06:34;2.20;;;0.77;;
24567;SDS011;12731;52.182;8.716;2023-12-29T13:09:06;3.67;;;1.00;;
24567;SDS011;12731;52.182;8.716;2023-12-29T13:11:38;1.20;;;0.70;;
24567;SDS011;12731;52.182;8.716;2023-12-29T13:14:06;1.20;;;0.70;;
24567;SDS011;12731;52.182;8.716;2023-12-29T13:16:36;1.75;;;0.88;;
24567;SDS011;12731;52.182;8.716;2023-12-29T13:19:17;2.65;;;0.85;;
24567;SDS011;12731;52.182;8.716;2023-12-29T13:21:48;3.53;;;1.00;;
24567;SDS011;12731;52.182;8.716;2023-12-29T13:24:16;1.95;;;0.82;;
24567;SDS011;12731;52.182;8.716;2023-12-29T13:26:47;2.78;;;0.90;;
24567;SDS011;12731;52.182;8.716;2023-12-29T13:29:19;1.08;;;0.90;;
24567;SDS011;12731;52.182;8.716;2023-12-29T13:31:50;3.42;;;1.00;;
24567;SDS011;12731;52.182;8.716;2023-12-29T13:34:21;2.15;;;1.00;;
24567;SDS011;12731;52.182;8.716;2023-12-29T13:36:54;1.92;;;1.00;;
24567;SDS011;12731;52.182;8.716;2023-12-29T13:39:40;2.33;;;1.08;;
24567;SDS011;12731;52.182;8.716;2023-12-29T13:42:11;1.38;;;0.88;;
24567;SDS011;12731;52.182;8.716;2023-12-29T13:44:40;3.38;;;1.17;;
24567;SDS011;12731;52.182;8.716;2023-12-29T13:47:08;2.80;;;1.40;;
24567;SDS011;12731;52.182;8.716;2023-12-29T13:49:34;3.97;;;1.42;;
24567;SDS011;12731;52.182;8.716;2023-12-29T13:52:03;4.75;;;1.58;;
24567;SDS011;12731;52.182;8.716;2023-12-29T13:54:30;3.45;;;1.75;;
24567;SDS011;12731;52.182;8.716;2023-12-29T13:56:56;5.00;;;1.40;;
24567;SDS011;12731;52.182;8.716;2023-12-29T13:59:29;4.82;;;2.00;;
24567;SDS011;12731;52.182;8.716;2023-12-29T14:01:58;3.83;;;1.40;;
24567;SDS011;12731;52.182;8.716;2023-12-29T14:04:26;3.20;;;1.30;;
24567;SDS011;12731;52.182;8.716;2023-12-29T14:06:54;3.38;;;0.90;;
24567;SDS011;12731;52.182;8.716;2023-12-29T14:09:24;5.05;;;1.85;;
24567;SDS011;12731;52.182;8.716;2023-12-29T14:11:51;4.80;;;1.02;;
24567;SDS011;12731;52.182;8.716;2023-12-29T14:14:21;4.63;;;1.85;;
24567;SDS011;12731;52.182;8.716;2023-12-29T14:16:48;4.25;;;1.60;;
24567;SDS011;12731;52.182;8.716;2023-12-29T14:19:15;4.88;;;1.58;;
24567;SDS011;12731;52.182;8.716;2023-12-29T14:21:41;6.60;;;2.10;;
24567;SDS011;12731;52.182;8.716;2023-12-29T14:29:20;6.25;;;1.50;;
24567;SDS011;12731;52.182;8.716;2023-12-29T14:31:47;3.33;;;1.90;;
24567;SDS011;12731;52.182;8.716;2023-12-29T14:34:14;6.28;;;1.40;;
24567;SDS011;12731;52.182;8.716;2023-12-29T14:36:41;6.18;;;1.77;;
24567;SDS011;12731;52.182;8.716;2023-12-29T14:39:08;6.78;;;1.40;;
24567;SDS011;12731;52.182;8.716;2023-12-29T14:41:38;3.55;;;1.40;;
24567;SDS011;12731;52.182;8.716;2023-12-29T14:44:05;5.88;;;1.40;;
24567;SDS011;12731;52.182;8.716;2023-12-29T14:46:31;3.20;;;1.33;;
24567;SDS011;12731;52.182;8.716;2023-12-29T14:49:00;6.05;;;1.50;;
24567;SDS011;12731;52.182;8.716;2023-12-29T14:51:27;4.50;;;1.40;;
24567;SDS011;12731;52.182;8.716;2023-12-29T14:53:53;4.10;;;1.42;;
24567;SDS011;12731;52.182;8.716;2023-12-29T14:56:20;4.88;;;1.55;;
24567;SDS011;12731;52.182;8.716;2023-12-29T14:58:46;5.45;;;1.63;;
24567;SDS011;12731;52.182;8.716;2023-12-29T15:01:13;4.80;;;1.65;;
24567;SDS011;12731;52.182;8.716;2023-12-29T15:03:40;6.32;;;1.55;;
24567;SDS011;12731;52.182;8.716;2023-12-29T15:06:07;5.15;;;1.58;;
24567;SDS011;12731;52.182;8.716;2023-12-29T15:08:33;6.00;;;1.70;;
24567;SDS011;12731;52.182;8.716;2023-12-29T15:11:03;4.82;;;1.33;;
24567;SDS011;12731;52.182;8.716;2023-12-29T15:13:31;5.72;;;1.42;;